Terminal Aerodrome Forecast
Issued by NWS Sterling, VA

Current Version | Previous Version | Graphics & Text | Print | Product List | Glossary On
Versions: 1 2 3 4 5 6 7 8 9 10 11 12 13 14 15 16 17 18 19 20 21 22 23
000
FTUS41 KLWX 251500 AAA
TAFDCA
TAF AMD
KDCA 251502Z 2515/2612 33007KT P6SM FEW040 FEW250
     FM251900 29005KT P6SM FEW250
     FM252200 22005KT P6SM FEW250
     FM260400 18006KT P6SM FEW250=

USA.gov is the U.S. government's official web portal to all federal, state and local government web resources and services.